sensor_id;sensor_type;location;lat;lon;timestamp;P1;durP1;ratioP1;P2;durP2;ratioP2
17259;SDS011;8746;49.230;9.220;2023-08-20T00:01:22;9.70;;;8.93;;
17259;SDS011;8746;49.230;9.220;2023-08-20T00:03:52;9.93;;;8.82;;
17259;SDS011;8746;49.230;9.220;2023-08-20T00:06:18;9.52;;;8.68;;
17259;SDS011;8746;49.230;9.220;2023-08-20T00:08:44;10.35;;;8.90;;
17259;SDS011;8746;49.230;9.220;2023-08-20T00:11:11;10.02;;;9.02;;
17259;SDS011;8746;49.230;9.220;2023-08-20T00:13:37;9.75;;;8.65;;
17259;SDS011;8746;49.230;9.220;2023-08-20T00:16:02;9.35;;;8.52;;
17259;SDS011;8746;49.230;9.220;2023-08-20T00:18:28;11.88;;;9.23;;
17259;SDS011;8746;49.230;9.220;2023-08-20T00:20:54;13.73;;;9.65;;
17259;SDS011;8746;49.230;9.220;2023-08-20T00:23:20;9.60;;;8.55;;
17259;SDS011;8746;49.230;9.220;2023-08-20T00:25:46;10.98;;;9.13;;
17259;SDS011;8746;49.230;9.220;2023-08-20T00:28:12;10.60;;;9.02;;
17259;SDS011;8746;49.230;9.220;2023-08-20T00:30:38;9.70;;;8.80;;
17259;SDS011;8746;49.230;9.220;2023-08-20T00:33:03;10.23;;;8.88;;
17259;SDS011;8746;49.230;9.220;2023-08-20T00:35:28;9.07;;;8.23;;
17259;SDS011;8746;49.230;9.220;2023-08-20T00:37:54;8.85;;;8.13;;
17259;SDS011;8746;49.230;9.220;2023-08-20T00:40:19;10.02;;;9.13;;
17259;SDS011;8746;49.230;9.220;2023-08-20T00:42:44;9.18;;;8.35;;
17259;SDS011;8746;49.230;9.220;2023-08-20T00:45:10;10.93;;;8.55;;
17259;SDS011;8746;49.230;9.220;2023-08-20T00:47:35;10.55;;;8.77;;
17259;SDS011;8746;49.230;9.220;2023-08-20T00:50:02;8.48;;;7.78;;
17259;SDS011;8746;49.230;9.220;2023-08-20T00:52:37;11.38;;;8.90;;
17259;SDS011;8746;49.230;9.220;2023-08-20T00:55:09;11.38;;;8.95;;
17259;SDS011;8746;49.230;9.220;2023-08-20T00:57:39;10.82;;;8.80;;
17259;SDS011;8746;49.230;9.220;2023-08-20T01:00:05;9.75;;;8.80;;
17259;SDS011;8746;49.230;9.220;2023-08-20T01:02:32;9.70;;;8.63;;
17259;SDS011;8746;49.230;9.220;2023-08-20T01:04:59;9.98;;;8.98;;
17259;SDS011;8746;49.230;9.220;2023-08-20T01:07:38;10.48;;;9.48;;
17259;SDS011;8746;49.230;9.220;2023-08-20T01:10:42;10.55;;;9.45;;
17259;SDS011;8746;49.230;9.220;2023-08-20T01:13:21;12.32;;;9.40;;
17259;SDS011;8746;49.230;9.220;2023-08-20T01:15:47;10.02;;;8.95;;
17259;SDS011;8746;49.230;9.220;2023-08-20T01:18:13;10.13;;;8.80;;
17259;SDS011;8746;49.230;9.220;2023-08-20T01:20:41;13.05;;;9.25;;
17259;SDS011;8746;49.230;9.220;2023-08-20T01:29:14;10.07;;;9.10;;
17259;SDS011;8746;49.230;9.220;2023-08-20T01:31:39;12.43;;;9.00;;
17259;SDS011;8746;49.230;9.220;2023-08-20T01:34:05;10.95;;;9.00;;
17259;SDS011;8746;49.230;9.220;2023-08-20T01:36:31;11.95;;;9.10;;
17259;SDS011;8746;49.230;9.220;2023-08-20T01:38:56;10.75;;;9.65;;
17259;SDS011;8746;49.230;9.220;2023-08-20T01:41:21;10.60;;;9.50;;
17259;SDS011;8746;49.230;9.220;2023-08-20T01:43:47;8.95;;;8.20;;
17259;SDS011;8746;49.230;9.220;2023-08-20T01:46:12;9.80;;;8.88;;
17259;SDS011;8746;49.230;9.220;2023-08-20T01:48:37;11.52;;;9.63;;
17259;SDS011;8746;49.230;9.220;2023-08-20T01:51:03;10.30;;;9.30;;
17259;SDS011;8746;49.230;9.220;2023-08-20T01:53:28;10.85;;;9.75;;
17259;SDS011;8746;49.230;9.220;2023-08-20T01:55:54;12.45;;;9.88;;
17259;SDS011;8746;49.230;9.220;2023-08-20T01:58:19;10.38;;;9.38;;
17259;SDS011;8746;49.230;9.220;2023-08-20T02:00:45;11.07;;;10.02;;
17259;SDS011;8746;49.230;9.220;2023-08-20T02:03:10;11.23;;;9.98;;
17259;SDS011;8746;49.230;9.220;2023-08-20T02:05:36;10.88;;;9.93;;
17259;SDS011;8746;49.230;9.220;2023-08-20T02:08:03;11.73;;;9.85;;
17259;SDS011;8746;49.230;9.220;2023-08-20T02:10:28;11.10;;;10.10;;
17259;SDS011;8746;49.230;9.220;2023-08-20T02:12:54;10.95;;;9.85;;
17259;SDS011;8746;49.230;9.220;2023-08-20T02:15:19;10.95;;;9.85;;
17259;SDS011;8746;49.230;9.220;2023-08-20T02:17:44;11.13;;;9.95;;
17259;SDS011;8746;49.230;9.220;2023-08-20T02:20:10;10.25;;;9.35;;
17259;SDS011;8746;49.230;9.220;2023-08-20T02:22:35;10.75;;;9.85;;
17259;SDS011;8746;49.230;9.220;2023-08-20T02:25:01;10.80;;;9.75;;
17259;SDS011;8746;49.230;9.220;2023-08-20T02:27:26;11.32;;;10.27;;
17259;SDS011;8746;49.230;9.220;2023-08-20T02:29:52;11.60;;;10.50;;
17259;SDS011;8746;49.230;9.220;2023-08-20T02:32:17;15.23;;;10.70;;
17259;SDS011;8746;49.230;9.220;2023-08-20T02:34:43;12.52;;;9.80;;
17259;SDS011;8746;49.230;9.220;2023-08-20T02:37:08;11.48;;;10.10;;
17259;SDS011;8746;49.230;9.220;2023-08-20T02:39:33;10.90;;;10.10;;
17259;SDS011;8746;49.230;9.220;2023-08-20T02:41:59;11.20;;;10.20;;
17259;SDS011;8746;49.230;9.220;2023-08-20T02:44:24;11.25;;;9.98;;
17259;SDS011;8746;49.230;9.220;2023-08-20T02:46:49;11.32;;;10.10;;
17259;SDS011;8746;49.230;9.220;2023-08-20T02:49:15;11.65;;;10.48;;
17259;SDS011;8746;49.230;9.220;2023-08-20T02:51:42;11.40;;;10.25;;
17259;SDS011;8746;49.230;9.220;2023-08-20T02:54:08;11.27;;;10.18;;
17259;SDS011;8746;49.230;9.220;2023-08-20T02:56:33;10.98;;;9.98;;
17259;SDS011;8746;49.230;9.220;2023-08-20T02:58:59;12.57;;;10.07;;
17259;SDS011;8746;49.230;9.220;2023-08-20T03:01:25;11.70;;;10.50;;
17259;SDS011;8746;49.230;9.220;2023-08-20T03:03:51;12.15;;;10.90;;
17259;SDS011;8746;49.230;9.220;2023-08-20T03:06:16;12.02;;;10.40;;
17259;SDS011;8746;49.230;9.220;2023-08-20T03:08:42;11.07;;;10.05;;
17259;SDS011;8746;49.230;9.220;2023-08-20T03:11:07;11.52;;;10.38;;
17259;SDS011;8746;49.230;9.220;2023-08-20T03:13:33;12.02;;;10.18;;
17259;SDS011;8746;49.230;9.220;2023-08-20T03:15:58;10.63;;;9.48;;
17259;SDS011;8746;49.230;9.220;2023-08-20T03:18:23;12.10;;;9.48;;
17259;SDS011;8746;49.230;9.220;2023-08-20T03:20:49;10.38;;;9.38;;
17259;SDS011;8746;49.230;9.220;2023-08-20T03:23:14;10.25;;;9.30;;
17259;SDS011;8746;49.230;9.220;2023-08-20T03:25:39;9.88;;;8.68;;
17259;SDS011;8746;49.230;9.220;2023-08-20T03:28:05;11.13;;;9.27;;
17259;SDS011;8746;49.230;9.220;2023-08-20T03:30:30;11.15;;;9.23;;
17259;SDS011;8746;49.230;9.220;2023-08-20T03:32:56;10.20;;;9.30;;
17259;SDS011;8746;49.230;9.220;2023-08-20T03:35:21;12.18;;;10.70;;
17259;SDS011;8746;49.230;9.220;2023-08-20T03:37:47;10.90;;;9.93;;
17259;SDS011;8746;49.230;9.220;2023-08-20T03:40:12;10.27;;;9.30;;
17259;SDS011;8746;49.230;9.220;2023-08-20T03:42:37;11.00;;;9.93;;
17259;SDS011;8746;49.230;9.220;2023-08-20T03:45:03;11.07;;;10.07;;
17259;SDS011;8746;49.230;9.220;2023-08-20T03:47:29;12.35;;;10.15;;
17259;SDS011;8746;49.230;9.220;2023-08-20T03:49:54;10.40;;;9.50;;
17259;SDS011;8746;49.230;9.220;2023-08-20T03:52:19;11.90;;;10.30;;
17259;SDS011;8746;49.230;9.220;2023-08-20T03:54:45;12.50;;;10.45;;
17259;SDS011;8746;49.230;9.220;2023-08-20T03:57:10;11.77;;;10.68;;
17259;SDS011;8746;49.230;9.220;2023-08-20T03:59:36;12.65;;;11.40;;
17259;SDS011;8746;49.230;9.220;2023-08-20T04:02:01;11.48;;;10.52;;
17259;SDS011;8746;49.230;9.220;2023-08-20T04:04:27;11.95;;;9.75;;
17259;SDS011;8746;49.230;9.220;2023-08-20T04:06:53;11.55;;;10.43;;
17259;SDS011;8746;49.230;9.220;2023-08-20T04:09:18;11.57;;;10.48;;
17259;SDS011;8746;49.230;9.220;2023-08-20T04:11:43;11.70;;;10.63;;
17259;SDS011;8746;49.230;9.220;2023-08-20T04:14:09;12.23;;;11.00;;
17259;SDS011;8746;49.230;9.220;2023-08-20T04:16:34;11.45;;;10.13;;
17259;SDS011;8746;49.230;9.220;2023-08-20T04:19:00;12.30;;;10.98;;
17259;SDS011;8746;49.230;9.220;2023-08-20T04:21:25;13.00;;;11.63;;
17259;SDS011;8746;49.230;9.220;2023-08-20T04:23:51;12.90;;;11.70;;
17259;SDS011;8746;49.230;9.220;2023-08-20T04:26:16;11.82;;;10.57;;
17259;SDS011;8746;49.230;9.220;2023-08-20T04:28:41;12.25;;;10.98;;
17259;SDS011;8746;49.230;9.220;2023-08-20T04:31:07;12.27;;;11.18;;
17259;SDS011;8746;49.230;9.220;2023-08-20T04:33:32;13.02;;;10.98;;
17259;SDS011;8746;49.230;9.220;2023-08-20T04:35:57;12.70;;;11.43;;
17259;SDS011;8746;49.230;9.220;2023-08-20T04:38:22;12.80;;;11.48;;
17259;SDS011;8746;49.230;9.220;2023-08-20T04:40:48;12.38;;;11.07;;
17259;SDS011;8746;49.230;9.220;2023-08-20T04:43:14;12.10;;;10.82;;
17259;SDS011;8746;49.230;9.220;2023-08-20T04:45:40;11.73;;;9.90;;
17259;SDS011;8746;49.230;9.220;2023-08-20T04:48:06;10.73;;;9.73;;
17259;SDS011;8746;49.230;9.220;2023-08-20T04:50:32;9.93;;;9.02;;
17259;SDS011;8746;49.230;9.220;2023-08-20T04:52:57;10.20;;;9.25;;
17259;SDS011;8746;49.230;9.220;2023-08-20T04:55:25;9.90;;;8.90;;
17259;SDS011;8746;49.230;9.220;2023-08-20T04:57:54;10.05;;;9.20;;
17259;SDS011;8746;49.230;9.220;2023-08-20T05:00:20;10.15;;;9.15;;
17259;SDS011;8746;49.230;9.220;2023-08-20T05:02:46;9.77;;;8.98;;
17259;SDS011;8746;49.230;9.220;2023-08-20T05:05:11;10.30;;;8.95;;
17259;SDS011;8746;49.230;9.220;2023-08-20T05:07:36;10.05;;;9.10;;
17259;SDS011;8746;49.230;9.220;2023-08-20T05:10:02;10.32;;;9.32;;
17259;SDS011;8746;49.230;9.220;2023-08-20T05:12:27;10.13;;;9.23;;
17259;SDS011;8746;49.230;9.220;2023-08-20T05:14:53;10.35;;;9.40;;
17259;SDS011;8746;49.230;9.220;2023-08-20T05:17:18;9.90;;;9.00;;
17259;SDS011;8746;49.230;9.220;2023-08-20T05:19:44;10.32;;;9.40;;
17259;SDS011;8746;49.230;9.220;2023-08-20T05:22:10;10.90;;;9.90;;
17259;SDS011;8746;49.230;9.220;2023-08-20T05:24:36;10.73;;;9.60;;
17259;SDS011;8746;49.230;9.220;2023-08-20T05:29:48;12.00;;;10.82;;
17259;SDS011;8746;49.230;9.220;2023-08-20T05:32:13;11.77;;;10.68;;
17259;SDS011;8746;49.230;9.220;2023-08-20T05:34:41;11.50;;;10.52;;
17259;SDS011;8746;49.230;9.220;2023-08-20T05:37:06;13.10;;;10.70;;
17259;SDS011;8746;49.230;9.220;2023-08-20T05:39:36;12.38;;;11.05;;
17259;SDS011;8746;49.230;9.220;2023-08-20T05:42:03;11.85;;;10.77;;
17259;SDS011;8746;49.230;9.220;2023-08-20T05:44:29;14.38;;;10.93;;
17259;SDS011;8746;49.230;9.220;2023-08-20T05:46:54;13.02;;;10.73;;
17259;SDS011;8746;49.230;9.220;2023-08-20T05:49:19;12.15;;;11.00;;
17259;SDS011;8746;49.230;9.220;2023-08-20T05:51:45;12.60;;;10.50;;
17259;SDS011;8746;49.230;9.220;2023-08-20T05:54:10;12.23;;;11.00;;
17259;SDS011;8746;49.230;9.220;2023-08-20T05:56:36;11.45;;;10.40;;
17259;SDS011;8746;49.230;9.220;2023-08-20T05:59:02;16.10;;;11.20;;
17259;SDS011;8746;49.230;9.220;2023-08-20T06:01:27;11.90;;;10.75;;
17259;SDS011;8746;49.230;9.220;2023-08-20T06:03:53;14.10;;;10.80;;
17259;SDS011;8746;49.230;9.220;2023-08-20T06:06:18;11.35;;;10.40;;
17259;SDS011;8746;49.230;9.220;2023-08-20T06:08:43;13.25;;;11.10;;
17259;SDS011;8746;49.230;9.220;2023-08-20T06:11:08;11.00;;;9.95;;
17259;SDS011;8746;49.230;9.220;2023-08-20T06:13:34;11.43;;;10.43;;
17259;SDS011;8746;49.230;9.220;2023-08-20T06:15:59;12.18;;;11.02;;
17259;SDS011;8746;49.230;9.220;2023-08-20T06:18:24;12.60;;;11.30;;
17259;SDS011;8746;49.230;9.220;2023-08-20T06:20:50;11.10;;;10.10;;
17259;SDS011;8746;49.230;9.220;2023-08-20T06:23:15;10.73;;;9.82;;
17259;SDS011;8746;49.230;9.220;2023-08-20T06:25:40;12.00;;;10.90;;
17259;SDS011;8746;49.230;9.220;2023-08-20T06:28:06;12.15;;;10.95;;
17259;SDS011;8746;49.230;9.220;2023-08-20T06:30:31;12.05;;;10.95;;
17259;SDS011;8746;49.230;9.220;2023-08-20T06:32:56;10.77;;;9.93;;
17259;SDS011;8746;49.230;9.220;2023-08-20T06:35:22;11.55;;;10.40;;
17259;SDS011;8746;49.230;9.220;2023-08-20T06:37:47;11.93;;;10.68;;
17259;SDS011;8746;49.230;9.220;2023-08-20T06:40:12;11.38;;;10.13;;
17259;SDS011;8746;49.230;9.220;2023-08-20T06:42:38;10.50;;;9.60;;
17259;SDS011;8746;49.230;9.220;2023-08-20T06:45:04;10.63;;;9.65;;
17259;SDS011;8746;49.230;9.220;2023-08-20T06:47:30;11.20;;;10.15;;
17259;SDS011;8746;49.230;9.220;2023-08-20T06:49:55;11.30;;;10.30;;
17259;SDS011;8746;49.230;9.220;2023-08-20T06:52:20;10.98;;;9.82;;
17259;SDS011;8746;49.230;9.220;2023-08-20T06:54:46;10.65;;;9.75;;
17259;SDS011;8746;49.230;9.220;2023-08-20T06:57:11;11.88;;;10.73;;
17259;SDS011;8746;49.230;9.220;2023-08-20T06:59:36;10.77;;;9.77;;
17259;SDS011;8746;49.230;9.220;2023-08-20T07:02:02;10.57;;;9.48;;
17259;SDS011;8746;49.230;9.220;2023-08-20T07:04:28;11.52;;;9.82;;
17259;SDS011;8746;49.230;9.220;2023-08-20T07:06:54;12.13;;;9.40;;
17259;SDS011;8746;49.230;9.220;2023-08-20T07:09:19;10.55;;;9.65;;
17259;SDS011;8746;49.230;9.220;2023-08-20T07:11:44;9.38;;;8.57;;
17259;SDS011;8746;49.230;9.220;2023-08-20T07:14:10;11.32;;;10.05;;
17259;SDS011;8746;49.230;9.220;2023-08-20T07:16:35;10.90;;;9.80;;
17259;SDS011;8746;49.230;9.220;2023-08-20T07:19:00;12.73;;;10.27;;
17259;SDS011;8746;49.230;9.220;2023-08-20T07:21:25;11.65;;;10.48;;
17259;SDS011;8746;49.230;9.220;2023-08-20T07:23:51;13.48;;;9.65;;
17259;SDS011;8746;49.230;9.220;2023-08-20T07:26:16;10.55;;;9.60;;
17259;SDS011;8746;49.230;9.220;2023-08-20T07:28:42;10.55;;;9.15;;
17259;SDS011;8746;49.230;9.220;2023-08-20T07:31:23;10.18;;;9.18;;
17259;SDS011;8746;49.230;9.220;2023-08-20T07:33:50;10.43;;;9.52;;
17259;SDS011;8746;49.230;9.220;2023-08-20T07:36:16;10.95;;;9.02;;
17259;SDS011;8746;49.230;9.220;2023-08-20T07:38:42;10.07;;;8.90;;
17259;SDS011;8746;49.230;9.220;2023-08-20T07:41:09;9.95;;;9.05;;
17259;SDS011;8746;49.230;9.220;2023-08-20T07:43:37;9.15;;;8.25;;
17259;SDS011;8746;49.230;9.220;2023-08-20T07:46:03;11.50;;;9.32;;
17259;SDS011;8746;49.230;9.220;2023-08-20T07:48:29;9.90;;;8.93;;
17259;SDS011;8746;49.230;9.220;2023-08-20T07:50:54;9.82;;;8.80;;
17259;SDS011;8746;49.230;9.220;2023-08-20T07:53:20;9.43;;;8.50;;
17259;SDS011;8746;49.230;9.220;2023-08-20T07:55:45;9.38;;;8.40;;
17259;SDS011;8746;49.230;9.220;2023-08-20T07:58:10;9.55;;;8.65;;
17259;SDS011;8746;49.230;9.220;2023-08-20T08:00:35;9.15;;;8.25;;
17259;SDS011;8746;49.230;9.220;2023-08-20T08:03:01;10.48;;;8.32;;
17259;SDS011;8746;49.230;9.220;2023-08-20T08:05:26;9.10;;;8.18;;
17259;SDS011;8746;49.230;9.220;2023-08-20T08:07:51;9.77;;;8.85;;
17259;SDS011;8746;49.230;9.220;2023-08-20T08:10:17;9.32;;;8.48;;
17259;SDS011;8746;49.230;9.220;2023-08-20T08:12:42;9.15;;;8.43;;
17259;SDS011;8746;49.230;9.220;2023-08-20T08:15:07;9.52;;;8.40;;
17259;SDS011;8746;49.230;9.220;2023-08-20T08:17:33;9.50;;;8.60;;
17259;SDS011;8746;49.230;9.220;2023-08-20T08:19:58;9.45;;;8.45;;
17259;SDS011;8746;49.230;9.220;2023-08-20T08:22:24;8.55;;;7.85;;
17259;SDS011;8746;49.230;9.220;2023-08-20T08:24:49;10.18;;;7.72;;
17259;SDS011;8746;49.230;9.220;2023-08-20T08:27:14;8.60;;;7.80;;
17259;SDS011;8746;49.230;9.220;2023-08-20T08:29:39;9.27;;;8.30;;
17259;SDS011;8746;49.230;9.220;2023-08-20T08:32:05;8.82;;;8.00;;
17259;SDS011;8746;49.230;9.220;2023-08-20T08:34:30;8.57;;;7.78;;
17259;SDS011;8746;49.230;9.220;2023-08-20T08:36:55;8.35;;;7.47;;
17259;SDS011;8746;49.230;9.220;2023-08-20T08:39:21;8.07;;;7.28;;
17259;SDS011;8746;49.230;9.220;2023-08-20T08:41:48;7.90;;;7.05;;
17259;SDS011;8746;49.230;9.220;2023-08-20T08:44:16;7.50;;;6.78;;
17259;SDS011;8746;49.230;9.220;2023-08-20T08:46:41;8.32;;;7.47;;
17259;SDS011;8746;49.230;9.220;2023-08-20T08:49:07;8.25;;;7.32;;
17259;SDS011;8746;49.230;9.220;2023-08-20T08:51:36;7.80;;;7.15;;
17259;SDS011;8746;49.230;9.220;2023-08-20T08:54:02;11.57;;;7.38;;
17259;SDS011;8746;49.230;9.220;2023-08-20T08:56:28;8.48;;;7.32;;
17259;SDS011;8746;49.230;9.220;2023-08-20T08:58:54;7.80;;;7.10;;
17259;SDS011;8746;49.230;9.220;2023-08-20T09:01:19;7.63;;;6.90;;
17259;SDS011;8746;49.230;9.220;2023-08-20T09:03:45;7.70;;;6.97;;
17259;SDS011;8746;49.230;9.220;2023-08-20T09:06:11;8.05;;;6.88;;
17259;SDS011;8746;49.230;9.220;2023-08-20T09:08:36;7.90;;;6.88;;
17259;SDS011;8746;49.230;9.220;2023-08-20T09:11:01;7.65;;;6.80;;
17259;SDS011;8746;49.230;9.220;2023-08-20T09:13:34;8.57;;;6.93;;
17259;SDS011;8746;49.230;9.220;2023-08-20T09:16:07;6.90;;;6.18;;
17259;SDS011;8746;49.230;9.220;2023-08-20T09:18:37;7.97;;;6.88;;
17259;SDS011;8746;49.230;9.220;2023-08-20T09:21:05;7.22;;;6.55;;
17259;SDS011;8746;49.230;9.220;2023-08-20T09:23:31;6.85;;;6.25;;
17259;SDS011;8746;49.230;9.220;2023-08-20T09:25:57;7.38;;;6.78;;
17259;SDS011;8746;49.230;9.220;2023-08-20T09:28:27;7.22;;;6.47;;
17259;SDS011;8746;49.230;9.220;2023-08-20T09:30:58;8.25;;;6.28;;
17259;SDS011;8746;49.230;9.220;2023-08-20T09:33:27;7.72;;;7.03;;
17259;SDS011;8746;49.230;9.220;2023-08-20T09:35:53;7.68;;;6.88;;
17259;SDS011;8746;49.230;9.220;2023-08-20T09:38:21;6.70;;;6.15;;
17259;SDS011;8746;49.230;9.220;2023-08-20T09:40:48;7.30;;;6.10;;
17259;SDS011;8746;49.230;9.220;2023-08-20T09:43:17;10.80;;;6.07;;
17259;SDS011;8746;49.230;9.220;2023-08-20T09:45:43;7.70;;;6.53;;
17259;SDS011;8746;49.230;9.220;2023-08-20T09:48:09;7.07;;;5.90;;
17259;SDS011;8746;49.230;9.220;2023-08-20T09:50:35;6.82;;;6.20;;
17259;SDS011;8746;49.230;9.220;2023-08-20T09:53:26;7.20;;;6.55;;
17259;SDS011;8746;49.230;9.220;2023-08-20T09:58:59;7.40;;;6.57;;
17259;SDS011;8746;49.230;9.220;2023-08-20T10:01:26;8.10;;;6.32;;
17259;SDS011;8746;49.230;9.220;2023-08-20T10:03:52;8.02;;;6.60;;
17259;SDS011;8746;49.230;9.220;2023-08-20T10:06:18;5.97;;;5.55;;
17259;SDS011;8746;49.230;9.220;2023-08-20T10:08:45;6.43;;;5.82;;
17259;SDS011;8746;49.230;9.220;2023-08-20T10:11:11;6.20;;;5.60;;
17259;SDS011;8746;49.230;9.220;2023-08-20T10:13:37;7.82;;;6.10;;
17259;SDS011;8746;49.230;9.220;2023-08-20T10:16:03;5.88;;;5.38;;
17259;SDS011;8746;49.230;9.220;2023-08-20T10:18:28;6.43;;;5.43;;
17259;SDS011;8746;49.230;9.220;2023-08-20T10:20:56;5.78;;;5.28;;
17259;SDS011;8746;49.230;9.220;2023-08-20T10:23:22;6.53;;;5.38;;
17259;SDS011;8746;49.230;9.220;2023-08-20T10:25:48;6.00;;;4.95;;
17259;SDS011;8746;49.230;9.220;2023-08-20T10:28:19;5.40;;;5.00;;
17259;SDS011;8746;49.230;9.220;2023-08-20T10:31:03;6.15;;;5.60;;
17259;SDS011;8746;49.230;9.220;2023-08-20T10:33:36;6.32;;;4.70;;
17259;SDS011;8746;49.230;9.220;2023-08-20T10:36:15;5.97;;;5.43;;
17259;SDS011;8746;49.230;9.220;2023-08-20T10:38:46;6.07;;;5.40;;
17259;SDS011;8746;49.230;9.220;2023-08-20T10:41:11;5.50;;;5.07;;
17259;SDS011;8746;49.230;9.220;2023-08-20T10:43:38;6.43;;;5.40;;
17259;SDS011;8746;49.230;9.220;2023-08-20T10:46:17;6.72;;;5.20;;
17259;SDS011;8746;49.230;9.220;2023-08-20T10:48:56;5.60;;;5.20;;
17259;SDS011;8746;49.230;9.220;2023-08-20T10:51:32;5.30;;;4.88;;
17259;SDS011;8746;49.230;9.220;2023-08-20T10:56:41;5.45;;;4.95;;
17259;SDS011;8746;49.230;9.220;2023-08-20T10:59:15;6.63;;;5.28;;
17259;SDS011;8746;49.230;9.220;2023-08-20T11:01:47;5.78;;;4.93;;
17259;SDS011;8746;49.230;9.220;2023-08-20T11:04:17;5.80;;;5.25;;
17259;SDS011;8746;49.230;9.220;2023-08-20T11:06:49;5.72;;;5.13;;
17259;SDS011;8746;49.230;9.220;2023-08-20T11:09:17;5.07;;;4.65;;
17259;SDS011;8746;49.230;9.220;2023-08-20T11:11:43;6.07;;;5.05;;
17259;SDS011;8746;49.230;9.220;2023-08-20T11:14:11;4.43;;;4.13;;
17259;SDS011;8746;49.230;9.220;2023-08-20T11:16:41;5.10;;;4.68;;
17259;SDS011;8746;49.230;9.220;2023-08-20T11:19:09;6.85;;;4.95;;
17259;SDS011;8746;49.230;9.220;2023-08-20T11:21:38;6.65;;;4.43;;
17259;SDS011;8746;49.230;9.220;2023-08-20T11:24:04;5.80;;;4.65;;
17259;SDS011;8746;49.230;9.220;2023-08-20T11:26:31;5.78;;;4.60;;
17259;SDS011;8746;49.230;9.220;2023-08-20T11:29:01;5.22;;;4.72;;
17259;SDS011;8746;49.230;9.220;2023-08-20T11:31:30;5.28;;;4.82;;
17259;SDS011;8746;49.230;9.220;2023-08-20T11:33:56;5.05;;;4.50;;
17259;SDS011;8746;49.230;9.220;2023-08-20T11:36:22;6.00;;;4.18;;
17259;SDS011;8746;49.230;9.220;2023-08-20T11:38:51;5.10;;;4.70;;
17259;SDS011;8746;49.230;9.220;2023-08-20T11:41:17;8.88;;;4.55;;
17259;SDS011;8746;49.230;9.220;2023-08-20T11:43:43;8.65;;;4.82;;
17259;SDS011;8746;49.230;9.220;2023-08-20T11:46:12;5.10;;;4.60;;
17259;SDS011;8746;49.230;9.220;2023-08-20T11:48:57;4.53;;;4.10;;
17259;SDS011;8746;49.230;9.220;2023-08-20T11:51:36;9.35;;;5.18;;
17259;SDS011;8746;49.230;9.220;2023-08-20T11:54:12;6.15;;;4.90;;
17259;SDS011;8746;49.230;9.220;2023-08-20T11:56:42;5.78;;;4.80;;
17259;SDS011;8746;49.230;9.220;2023-08-20T11:59:11;5.88;;;4.47;;
17259;SDS011;8746;49.230;9.220;2023-08-20T12:01:37;5.13;;;4.60;;
17259;SDS011;8746;49.230;9.220;2023-08-20T12:04:03;6.30;;;4.85;;
17259;SDS011;8746;49.230;9.220;2023-08-20T12:06:29;4.63;;;4.25;;
17259;SDS011;8746;49.230;9.220;2023-08-20T12:08:56;4.72;;;4.32;;
17259;SDS011;8746;49.230;9.220;2023-08-20T12:11:25;4.78;;;4.38;;
17259;SDS011;8746;49.230;9.220;2023-08-20T12:13:51;4.53;;;4.13;;
17259;SDS011;8746;49.230;9.220;2023-08-20T12:16:17;8.65;;;4.80;;
17259;SDS011;8746;49.230;9.220;2023-08-20T12:18:43;4.32;;;4.03;;
17259;SDS011;8746;49.230;9.220;2023-08-20T12:21:11;6.40;;;4.65;;
17259;SDS011;8746;49.230;9.220;2023-08-20T12:23:37;7.00;;;4.40;;
17259;SDS011;8746;49.230;9.220;2023-08-20T12:26:02;6.93;;;3.90;;
17259;SDS011;8746;49.230;9.220;2023-08-20T12:28:28;4.53;;;4.05;;
17259;SDS011;8746;49.230;9.220;2023-08-20T12:30:54;5.20;;;4.40;;
17259;SDS011;8746;49.230;9.220;2023-08-20T12:33:19;6.57;;;4.20;;
17259;SDS011;8746;49.230;9.220;2023-08-20T12:35:45;4.70;;;4.00;;
17259;SDS011;8746;49.230;9.220;2023-08-20T12:38:11;4.88;;;3.88;;
17259;SDS011;8746;49.230;9.220;2023-08-20T12:40:37;4.72;;;3.90;;
17259;SDS011;8746;49.230;9.220;2023-08-20T12:43:03;4.57;;;4.13;;
17259;SDS011;8746;49.230;9.220;2023-08-20T12:45:28;6.13;;;3.95;;
17259;SDS011;8746;49.230;9.220;2023-08-20T12:47:54;4.25;;;3.95;;
17259;SDS011;8746;49.230;9.220;2023-08-20T12:50:20;4.00;;;3.72;;
17259;SDS011;8746;49.230;9.220;2023-08-20T12:52:45;5.30;;;3.92;;
17259;SDS011;8746;49.230;9.220;2023-08-20T12:55:12;6.03;;;4.10;;
17259;SDS011;8746;49.230;9.220;2023-08-20T12:57:51;4.57;;;3.95;;
17259;SDS011;8746;49.230;9.220;2023-08-20T13:00:17;4.38;;;3.97;;
17259;SDS011;8746;49.230;9.220;2023-08-20T13:02:43;4.45;;;3.75;;
17259;SDS011;8746;49.230;9.220;2023-08-20T13:05:08;4.25;;;3.85;;
17259;SDS011;8746;49.230;9.220;2023-08-20T13:07:35;4.30;;;3.90;;
17259;SDS011;8746;49.230;9.220;2023-08-20T13:10:00;7.18;;;4.20;;
17259;SDS011;8746;49.230;9.220;2023-08-20T13:12:26;7.78;;;4.10;;
17259;SDS011;8746;49.230;9.220;2023-08-20T13:14:52;4.43;;;3.97;;
17259;SDS011;8746;49.230;9.220;2023-08-20T13:17:17;4.40;;;4.00;;
17259;SDS011;8746;49.230;9.220;2023-08-20T13:19:43;4.78;;;4.38;;
17259;SDS011;8746;49.230;9.220;2023-08-20T13:22:08;4.43;;;4.10;;
17259;SDS011;8746;49.230;9.220;2023-08-20T13:24:34;4.18;;;3.80;;
17259;SDS011;8746;49.230;9.220;2023-08-20T13:26:59;5.57;;;4.05;;
17259;SDS011;8746;49.230;9.220;2023-08-20T13:29:24;4.57;;;4.18;;
17259;SDS011;8746;49.230;9.220;2023-08-20T13:31:49;6.60;;;4.13;;
17259;SDS011;8746;49.230;9.220;2023-08-20T13:34:15;4.43;;;3.88;;
17259;SDS011;8746;49.230;9.220;2023-08-20T13:36:40;4.40;;;4.00;;
17259;SDS011;8746;49.230;9.220;2023-08-20T13:39:06;5.05;;;3.95;;
17259;SDS011;8746;49.230;9.220;2023-08-20T13:41:31;7.22;;;4.10;;
17259;SDS011;8746;49.230;9.220;2023-08-20T13:43:56;4.43;;;3.80;;
17259;SDS011;8746;49.230;9.220;2023-08-20T13:46:22;6.50;;;3.95;;
17259;SDS011;8746;49.230;9.220;2023-08-20T13:48:47;5.47;;;4.18;;
17259;SDS011;8746;49.230;9.220;2023-08-20T13:51:12;4.18;;;3.75;;
17259;SDS011;8746;49.230;9.220;2023-08-20T13:53:38;5.10;;;4.28;;
17259;SDS011;8746;49.230;9.220;2023-08-20T13:56:03;3.80;;;3.50;;
17259;SDS011;8746;49.230;9.220;2023-08-20T13:58:29;3.88;;;3.58;;
17259;SDS011;8746;49.230;9.220;2023-08-20T14:00:54;4.28;;;3.97;;
17259;SDS011;8746;49.230;9.220;2023-08-20T14:03:20;5.07;;;3.85;;
17259;SDS011;8746;49.230;9.220;2023-08-20T14:05:47;4.88;;;4.10;;
17259;SDS011;8746;49.230;9.220;2023-08-20T14:08:12;4.20;;;3.70;;
17259;SDS011;8746;49.230;9.220;2023-08-20T14:10:38;4.00;;;3.40;;
17259;SDS011;8746;49.230;9.220;2023-08-20T14:13:03;4.03;;;3.70;;
17259;SDS011;8746;49.230;9.220;2023-08-20T14:15:29;4.07;;;3.70;;
17259;SDS011;8746;49.230;9.220;2023-08-20T14:17:54;4.30;;;3.88;;
17259;SDS011;8746;49.230;9.220;2023-08-20T14:20:19;4.03;;;3.72;;
17259;SDS011;8746;49.230;9.220;2023-08-20T14:22:44;4.25;;;3.67;;
17259;SDS011;8746;49.230;9.220;2023-08-20T14:25:10;4.47;;;3.90;;
17259;SDS011;8746;49.230;9.220;2023-08-20T14:27:35;3.95;;;3.65;;
17259;SDS011;8746;49.230;9.220;2023-08-20T14:30:00;5.00;;;3.53;;
17259;SDS011;8746;49.230;9.220;2023-08-20T14:32:26;4.50;;;3.80;;
17259;SDS011;8746;49.230;9.220;2023-08-20T14:34:51;4.13;;;3.72;;
17259;SDS011;8746;49.230;9.220;2023-08-20T14:37:16;4.20;;;3.83;;
17259;SDS011;8746;49.230;9.220;2023-08-20T14:39:42;4.82;;;3.83;;
17259;SDS011;8746;49.230;9.220;2023-08-20T14:42:07;3.88;;;3.47;;
17259;SDS011;8746;49.230;9.220;2023-08-20T14:44:33;4.25;;;3.95;;
17259;SDS011;8746;49.230;9.220;2023-08-20T14:46:58;4.20;;;3.90;;
17259;SDS011;8746;49.230;9.220;2023-08-20T14:49:23;3.85;;;3.45;;
17259;SDS011;8746;49.230;9.220;2023-08-20T14:51:49;4.07;;;3.67;;
17259;SDS011;8746;49.230;9.220;2023-08-20T14:54:14;4.28;;;3.88;;
17259;SDS011;8746;49.230;9.220;2023-08-20T14:56:39;4.13;;;3.72;;
17259;SDS011;8746;49.230;9.220;2023-08-20T14:59:05;3.60;;;3.30;;
17259;SDS011;8746;49.230;9.220;2023-08-20T15:01:30;4.18;;;3.78;;
17259;SDS011;8746;49.230;9.220;2023-08-20T15:03:55;4.00;;;3.70;;